Terminal Aerodrome Forecast
Issued by NWS Caribou, ME

Home | Current Version | Previous Version | Text Only | Print | Product List | Glossary On
Versions: 1 2 3 4 5 6 7 8 9 10 11 12 13 14 15 16 17 18
000
FTUS41 KCAR 032002 AAB
TAFCAR
TAF AMD
KCAR 032002Z 0320/0418 19018G25KT P6SM FEW250
     FM032030 19014G25KT 5SM -TSRA BKN040CB
     FM040300 19008KT 2SM -SHRA OVC040
     FM041000 17005KT 2SM BR OVC008
     FM041300 17006KT P6SM OVC015
     FM041600 18008KT P6SM BKN050=

USA.gov is the U.S. government's official web portal to all federal, state and local government web resources and services.